createdAt,value
2023-03-17T00:01:21.779Z,7.50
2023-03-17T00:03:50.475Z,7.60
2023-03-17T00:06:23.779Z,7.50
2023-03-17T00:08:53.141Z,7.50
2023-03-17T00:11:23.454Z,7.50
2023-03-17T00:13:51.510Z,7.50
2023-03-17T00:16:22.347Z,7.50
2023-03-17T00:18:51.847Z,7.40
2023-03-17T00:21:25.913Z,7.40
2023-03-17T00:23:56.205Z,7.40
2023-03-17T00:26:28.339Z,7.40
2023-03-17T00:28:56.900Z,7.40
2023-03-17T00:31:27.716Z,7.40
2023-03-17T00:33:56.759Z,7.30
2023-03-17T00:36:28.088Z,7.30
2023-03-17T00:38:58.400Z,7.30
2023-03-17T00:41:27.095Z,7.30
2023-03-17T00:43:55.397Z,7.30
2023-03-17T00:46:27.896Z,7.30
2023-03-17T00:48:56.435Z,7.30
2023-03-17T00:51:24.440Z,7.30
2023-03-17T00:53:52.835Z,7.20
2023-03-17T00:56:23.432Z,7.20
2023-03-17T00:58:51.586Z,7.20
2023-03-17T01:01:20.029Z,7.20
2023-03-17T01:03:48.064Z,7.30
2023-03-17T01:06:17.636Z,7.20
2023-03-17T01:08:46.554Z,7.20
2023-03-17T01:11:18.601Z,7.20
2023-03-17T01:13:48.303Z,7.20
2023-03-17T01:16:17.043Z,7.20
2023-03-17T01:18:45.642Z,7.20
2023-03-17T01:21:13.954Z,7.20
2023-03-17T01:23:42.191Z,7.20
2023-03-17T01:26:10.275Z,7.20
2023-03-17T01:28:38.350Z,7.20
2023-03-17T01:31:07.810Z,7.20
2023-03-17T01:33:36.463Z,7.30
2023-03-17T01:36:04.574Z,7.20
2023-03-17T01:38:32.603Z,7.30
2023-03-17T01:41:03.359Z,7.30
2023-03-17T01:43:32.541Z,7.30
2023-03-17T01:46:25.222Z,7.30
2023-03-17T01:49:16.337Z,7.30
2023-03-17T01:51:51.720Z,7.30
2023-03-17T01:54:24.652Z,7.30
2023-03-17T01:56:55.251Z,7.30
2023-03-17T01:59:29.020Z,7.30
2023-03-17T02:02:02.537Z,7.30
2023-03-17T02:04:31.447Z,7.30
2023-03-17T02:06:59.981Z,7.30
2023-03-17T02:09:29.390Z,7.30
2023-03-17T02:11:59.806Z,7.30
2023-03-17T02:14:28.086Z,7.30
2023-03-17T02:16:56.256Z,7.30
2023-03-17T02:19:25.668Z,7.30
2023-03-17T02:21:56.799Z,7.30
2023-03-17T02:24:31.957Z,7.30
2023-03-17T02:27:05.651Z,7.30
2023-03-17T02:29:35.975Z,7.30
2023-03-17T02:32:05.496Z,7.30
2023-03-17T02:34:33.630Z,7.30
2023-03-17T02:37:03.016Z,7.30
2023-03-17T02:39:31.856Z,7.30
2023-03-17T02:41:59.907Z,7.40
2023-03-17T02:44:28.145Z,7.30
2023-03-17T02:46:56.644Z,7.40
2023-03-17T02:49:25.687Z,7.30
2023-03-17T02:51:54.025Z,7.30
2023-03-17T02:54:23.677Z,7.30
2023-03-17T02:56:51.739Z,7.30
2023-03-17T02:59:19.708Z,7.30
2023-03-17T03:01:48.696Z,7.30
2023-03-17T03:04:17.381Z,7.30
2023-03-17T03:06:45.763Z,7.30
2023-03-17T03:09:14.778Z,7.30
2023-03-17T03:11:44.633Z,7.30
2023-03-17T03:14:13.602Z,7.30
2023-03-17T03:16:41.772Z,7.30
2023-03-17T03:19:10.038Z,7.30
2023-03-17T03:21:38.431Z,7.20
2023-03-17T03:24:07.592Z,7.30
2023-03-17T03:26:36.148Z,7.30
2023-03-17T03:29:06.080Z,7.30
2023-03-17T03:31:34.089Z,7.30
2023-03-17T03:34:02.130Z,7.30
2023-03-17T03:36:30.287Z,7.30
2023-03-17T03:38:58.709Z,7.40
2023-03-17T03:41:27.274Z,7.40
2023-03-17T03:43:55.245Z,7.40
2023-03-17T03:46:24.693Z,7.40
2023-03-17T03:48:52.758Z,7.40
2023-03-17T03:51:20.921Z,7.40
2023-03-17T03:53:49.247Z,7.40
2023-03-17T03:56:17.268Z,7.40
2023-03-17T03:58:45.248Z,7.40
2023-03-17T04:01:14.072Z,7.40
2023-03-17T04:03:43.411Z,7.40
2023-03-17T04:06:11.813Z,7.40
2023-03-17T04:08:39.806Z,7.40
2023-03-17T04:11:08.681Z,7.40
2023-03-17T04:13:37.050Z,7.40
2023-03-17T04:16:05.152Z,7.40
2023-03-17T04:18:33.125Z,7.40
2023-03-17T04:21:02.606Z,7.40
2023-03-17T04:23:31.457Z,7.40
2023-03-17T04:25:59.506Z,7.40
2023-03-17T04:28:27.539Z,7.30
2023-03-17T04:30:56.190Z,7.30
2023-03-17T04:33:24.227Z,7.30
2023-03-17T04:35:52.357Z,7.30
2023-03-17T04:38:21.884Z,7.30
2023-03-17T04:40:51.144Z,7.30
2023-03-17T04:43:19.128Z,7.30
2023-03-17T04:45:47.079Z,7.30
2023-03-17T04:48:15.065Z,7.30
2023-03-17T04:50:44.285Z,7.30
2023-03-17T04:53:12.595Z,7.30
2023-03-17T04:55:42.210Z,7.20
2023-03-17T04:58:11.772Z,7.20
2023-03-17T05:00:41.503Z,7.20
2023-03-17T05:03:24.081Z,7.20
2023-03-17T05:05:55.522Z,7.20
2023-03-17T05:08:23.550Z,7.20
2023-03-17T05:10:53.151Z,7.10
2023-03-17T05:13:21.145Z,7.20
2023-03-17T05:15:49.672Z,7.20
2023-03-17T05:18:18.507Z,7.10
2023-03-17T05:20:47.115Z,7.10
2023-03-17T05:23:15.430Z,7.20
2023-03-17T05:25:44.042Z,7.20
2023-03-17T05:28:13.442Z,7.20
2023-03-17T05:30:42.494Z,7.20
2023-03-17T05:33:10.625Z,7.30
2023-03-17T05:35:39.051Z,7.20
2023-03-17T05:38:07.373Z,7.30
2023-03-17T05:40:35.545Z,7.30
2023-03-17T05:43:03.931Z,7.30
2023-03-17T05:45:33.889Z,7.30
2023-03-17T05:48:02.140Z,7.40
2023-03-17T05:50:30.454Z,7.40
2023-03-17T05:52:58.542Z,7.40
2023-03-17T05:55:26.704Z,7.40
2023-03-17T05:57:54.723Z,7.40
2023-03-17T06:00:23.235Z,7.40
2023-03-17T06:02:52.565Z,7.40
2023-03-17T06:05:20.522Z,7.40
2023-03-17T06:07:54.965Z,7.40
2023-03-17T06:10:24.800Z,7.50
2023-03-17T06:12:52.869Z,7.50
2023-03-17T06:15:21.428Z,7.50
2023-03-17T06:17:49.473Z,7.60
2023-03-17T06:20:19.729Z,7.60
2023-03-17T06:23:02.788Z,7.60
2023-03-17T06:25:32.397Z,7.70
2023-03-17T06:28:02.287Z,7.70
2023-03-17T06:30:30.678Z,7.70
2023-03-17T06:32:58.698Z,7.80
2023-03-17T06:35:28.475Z,7.80
2023-03-17T06:37:56.620Z,7.80
2023-03-17T06:40:24.661Z,7.80
2023-03-17T06:42:52.674Z,7.90
2023-03-17T06:45:20.676Z,8.00
2023-03-17T06:47:51.781Z,8.00
2023-03-17T06:50:20.124Z,8.00
2023-03-17T06:52:49.710Z,8.10
2023-03-17T06:55:18.204Z,8.10
2023-03-17T06:57:48.359Z,8.10
2023-03-17T07:00:18.522Z,8.10
2023-03-17T07:02:47.331Z,8.20
2023-03-17T07:05:15.399Z,8.30
2023-03-17T07:07:43.549Z,8.40
2023-03-17T07:10:17.189Z,8.50
2023-03-17T07:12:45.627Z,8.50
2023-03-17T07:15:13.792Z,8.60
2023-03-17T07:17:42.276Z,8.60
2023-03-17T07:20:11.959Z,8.70
2023-03-17T07:22:40.008Z,8.80
2023-03-17T07:25:09.705Z,8.80
2023-03-17T07:27:39.337Z,8.80
2023-03-17T07:30:08.738Z,8.90
2023-03-17T07:32:37.583Z,8.90
2023-03-17T07:35:06.204Z,9.00
2023-03-17T07:37:34.188Z,9.10
2023-03-17T07:40:02.295Z,9.10
2023-03-17T07:42:30.319Z,9.20
2023-03-17T07:44:59.684Z,9.30
2023-03-17T07:47:27.655Z,9.40
2023-03-17T07:49:55.785Z,9.40
2023-03-17T07:52:23.796Z,9.50
2023-03-17T07:54:53.112Z,9.60
2023-03-17T07:57:22.226Z,9.80
2023-03-17T07:59:50.600Z,9.80
2023-03-17T08:02:21.120Z,9.90
2023-03-17T08:04:50.098Z,9.90
2023-03-17T08:07:18.389Z,9.90
2023-03-17T08:09:46.484Z,9.90
2023-03-17T08:12:15.110Z,9.80
2023-03-17T08:14:43.136Z,9.90
2023-03-17T08:17:11.562Z,10.00
2023-03-17T08:19:41.091Z,10.10
2023-03-17T08:22:09.577Z,10.20
2023-03-17T08:24:39.651Z,10.30
2023-03-17T08:27:07.906Z,10.30
2023-03-17T08:29:36.025Z,10.40
2023-03-17T08:32:04.334Z,10.50
2023-03-17T08:34:32.589Z,10.60
2023-03-17T08:37:03.144Z,10.70
2023-03-17T08:39:31.742Z,10.80
2023-03-17T08:42:00.140Z,10.90
2023-03-17T08:44:28.232Z,10.90
2023-03-17T08:46:56.447Z,11.00
2023-03-17T08:49:24.657Z,11.00
2023-03-17T08:51:53.360Z,11.00
2023-03-17T08:54:23.058Z,11.10
2023-03-17T08:56:51.085Z,11.20
2023-03-17T08:59:19.094Z,11.20
2023-03-17T09:01:47.197Z,11.30
2023-03-17T09:04:15.445Z,11.40
2023-03-17T09:07:01.147Z,11.50
2023-03-17T09:09:32.168Z,11.60
2023-03-17T09:12:00.222Z,11.70
2023-03-17T09:14:29.581Z,11.80
2023-03-17T09:16:57.696Z,11.80
2023-03-17T09:19:25.946Z,11.90
2023-03-17T09:21:53.938Z,12.00
2023-03-17T09:24:21.945Z,12.10
2023-03-17T09:26:51.243Z,12.10
2023-03-17T09:29:19.290Z,12.20
2023-03-17T09:31:47.574Z,12.20
2023-03-17T09:34:15.525Z,12.30
2023-03-17T09:36:43.558Z,12.30
2023-03-17T09:39:11.599Z,12.40
2023-03-17T09:42:09.033Z,12.40
2023-03-17T09:45:02.836Z,12.40
2023-03-17T09:47:47.550Z,12.50
2023-03-17T09:50:20.134Z,12.60
2023-03-17T09:52:50.387Z,12.60
2023-03-17T09:55:27.314Z,12.70
2023-03-17T09:57:58.781Z,12.80
2023-03-17T10:00:29.728Z,12.90
2023-03-17T10:02:58.880Z,13.00
2023-03-17T10:05:28.564Z,13.10
2023-03-17T10:08:04.428Z,13.10
2023-03-17T10:10:46.852Z,13.20
2023-03-17T10:13:25.669Z,13.30
2023-03-17T10:15:59.286Z,13.30
2023-03-17T10:18:31.210Z,13.30
2023-03-17T10:21:02.638Z,13.30
2023-03-17T10:23:33.748Z,13.40
2023-03-17T10:26:22.209Z,13.40
2023-03-17T10:28:51.576Z,13.40
2023-03-17T10:31:22.883Z,13.50
2023-03-17T10:33:53.297Z,13.50
2023-03-17T10:36:36.974Z,13.60
2023-03-17T10:39:07.006Z,13.70
2023-03-17T10:41:37.707Z,13.80
2023-03-17T10:44:11.088Z,13.90
2023-03-17T10:46:40.204Z,14.00
2023-03-17T10:49:10.862Z,14.10
2023-03-17T10:51:40.725Z,14.20
2023-03-17T10:54:12.820Z,14.20
2023-03-17T10:56:43.762Z,14.40
2023-03-17T10:59:19.714Z,14.50
2023-03-17T11:01:54.033Z,14.60
2023-03-17T11:04:31.452Z,14.70
2023-03-17T11:07:01.499Z,14.70
2023-03-17T11:09:35.958Z,14.60
2023-03-17T11:12:08.850Z,14.70
2023-03-17T11:14:38.246Z,14.70
2023-03-17T11:17:17.596Z,14.80
2023-03-17T11:19:55.723Z,14.90
2023-03-17T11:22:30.451Z,15.00
2023-03-17T11:25:05.749Z,15.10
2023-03-17T11:27:36.618Z,15.10
2023-03-17T11:30:18.558Z,15.10
2023-03-17T11:32:55.010Z,15.20
2023-03-17T11:35:35.789Z,15.30
2023-03-17T11:38:20.313Z,15.40
2023-03-17T11:41:11.340Z,15.50
2023-03-17T11:43:54.121Z,15.60
2023-03-17T11:46:29.585Z,15.60
2023-03-17T11:49:03.129Z,15.60
2023-03-17T11:51:37.514Z,15.70
2023-03-17T11:54:11.493Z,15.70
2023-03-17T11:56:44.081Z,15.80
2023-03-17T11:59:22.693Z,15.80
2023-03-17T12:01:59.436Z,15.80
2023-03-17T12:04:34.359Z,15.80
2023-03-17T12:07:09.090Z,15.70
2023-03-17T12:09:42.169Z,15.70
2023-03-17T12:12:15.837Z,15.70
2023-03-17T12:14:48.482Z,15.80
2023-03-17T12:17:25.116Z,15.80
2023-03-17T12:20:09.637Z,15.80
2023-03-17T12:22:41.944Z,15.80
2023-03-17T12:25:17.992Z,15.80
2023-03-17T12:27:53.414Z,15.90
2023-03-17T12:30:33.038Z,15.90
2023-03-17T12:33:11.970Z,16.00
2023-03-17T12:35:40.575Z,16.00
2023-03-17T12:38:13.494Z,16.10
2023-03-17T12:41:01.760Z,16.20
2023-03-17T12:43:39.663Z,16.30
2023-03-17T12:46:44.593Z,16.30
2023-03-17T12:50:02.569Z,16.30
2023-03-17T12:52:46.218Z,16.30
2023-03-17T12:55:17.144Z,16.40
2023-03-17T12:57:47.027Z,16.50
2023-03-17T13:00:24.456Z,16.50
2023-03-17T13:03:08.477Z,16.60
2023-03-17T13:05:38.324Z,16.60
2023-03-17T13:08:10.969Z,16.70
2023-03-17T13:10:42.104Z,16.70
2023-03-17T13:13:41.584Z,16.80
2023-03-17T13:16:29.048Z,16.80
2023-03-17T13:19:20.188Z,16.90
2023-03-17T13:21:54.163Z,16.90
2023-03-17T13:24:41.939Z,16.90
2023-03-17T13:27:14.410Z,17.00
2023-03-17T13:29:47.746Z,17.00
2023-03-17T13:32:39.618Z,17.00
2023-03-17T13:35:22.196Z,17.10
2023-03-17T13:38:14.449Z,17.10
2023-03-17T13:40:53.135Z,17.00
2023-03-17T13:43:45.712Z,17.00
2023-03-17T13:46:22.589Z,17.00
2023-03-17T13:48:51.564Z,17.10
2023-03-17T13:51:22.729Z,17.10
2023-03-17T13:53:55.503Z,17.10
2023-03-17T13:56:26.324Z,17.10
2023-03-17T13:59:06.181Z,17.10
2023-03-17T14:01:40.809Z,17.20
2023-03-17T14:04:18.416Z,17.10
2023-03-17T14:06:48.011Z,17.10
2023-03-17T14:09:28.906Z,17.00
2023-03-17T14:11:59.399Z,17.10
2023-03-17T14:14:37.608Z,17.10
2023-03-17T14:17:13.044Z,17.20
2023-03-17T14:19:42.079Z,17.20
2023-03-17T14:22:24.322Z,17.20
2023-03-17T14:24:54.632Z,17.20
2023-03-17T14:27:25.014Z,17.20
2023-03-17T14:29:53.551Z,17.20
2023-03-17T14:32:24.180Z,17.20
2023-03-17T14:34:57.809Z,17.20
2023-03-17T14:37:26.694Z,17.30
2023-03-17T14:39:58.899Z,17.30
2023-03-17T14:42:28.969Z,17.30
2023-03-17T14:45:05.045Z,17.30
2023-03-17T14:47:39.663Z,17.30
2023-03-17T14:50:17.217Z,17.20
2023-03-17T14:52:45.860Z,17.20
2023-03-17T14:55:17.006Z,17.10
2023-03-17T14:57:50.953Z,17.20
2023-03-17T15:00:34.257Z,17.20
2023-03-17T15:03:05.318Z,17.20
2023-03-17T15:05:40.593Z,17.20
2023-03-17T15:08:37.438Z,17.20
2023-03-17T15:11:10.097Z,17.20
2023-03-17T15:13:39.301Z,17.10
2023-03-17T15:16:08.244Z,17.10
2023-03-17T15:18:36.268Z,17.10
2023-03-17T15:21:04.260Z,17.00
2023-03-17T15:23:41.356Z,17.00
2023-03-17T15:26:26.897Z,17.00
2023-03-17T15:28:54.858Z,17.00
2023-03-17T15:31:28.503Z,16.90
2023-03-17T15:33:57.824Z,16.80
2023-03-17T15:36:32.602Z,16.80
2023-03-17T15:39:01.630Z,16.70
2023-03-17T15:41:30.988Z,16.60
2023-03-17T15:43:58.969Z,16.60
2023-03-17T15:46:31.029Z,16.50
2023-03-17T15:48:59.292Z,16.50
2023-03-17T15:51:28.992Z,16.50
2023-03-17T15:53:57.404Z,16.40
2023-03-17T15:56:25.950Z,16.40
2023-03-17T15:58:56.761Z,16.30
2023-03-17T16:01:27.735Z,16.30
2023-03-17T16:03:57.126Z,16.30
2023-03-17T16:06:25.703Z,16.20
2023-03-17T16:08:53.660Z,16.20
2023-03-17T16:11:28.145Z,16.10
2023-03-17T16:13:59.648Z,16.10
2023-03-17T16:16:33.013Z,16.00
2023-03-17T16:19:01.251Z,16.00
2023-03-17T16:21:31.136Z,16.00
2023-03-17T16:23:59.545Z,15.90
2023-03-17T16:26:28.752Z,15.80
2023-03-17T16:28:58.619Z,15.80
2023-03-17T16:31:29.351Z,15.70
2023-03-17T16:33:57.890Z,15.60
2023-03-17T16:36:26.971Z,15.60
2023-03-17T16:38:55.237Z,15.50
2023-03-17T16:41:25.109Z,15.50
2023-03-17T16:43:58.681Z,15.40
2023-03-17T16:46:34.040Z,15.40
2023-03-17T16:49:03.986Z,15.40
2023-03-17T16:51:31.965Z,15.30
2023-03-17T16:53:59.978Z,15.20
2023-03-17T16:56:28.825Z,15.20
2023-03-17T16:58:56.929Z,15.10
2023-03-17T17:01:28.676Z,15.10
2023-03-17T17:03:57.008Z,15.00
2023-03-17T17:06:27.145Z,15.00
2023-03-17T17:08:55.186Z,14.90
2023-03-17T17:11:23.198Z,14.90
2023-03-17T17:13:51.754Z,14.80
2023-03-17T17:16:24.483Z,14.80
2023-03-17T17:18:54.194Z,14.80
2023-03-17T17:21:22.486Z,14.70
2023-03-17T17:23:52.778Z,14.70
2023-03-17T17:26:21.322Z,14.70
2023-03-17T17:28:49.707Z,14.60
2023-03-17T17:31:18.012Z,14.60
2023-03-17T17:33:46.027Z,14.60
2023-03-17T17:36:17.905Z,14.50
2023-03-17T17:38:46.068Z,14.50
2023-03-17T17:41:16.900Z,14.50
2023-03-17T17:43:46.219Z,14.40
2023-03-17T17:46:19.134Z,14.40
2023-03-17T17:48:47.615Z,14.40
2023-03-17T17:51:17.225Z,14.40
2023-03-17T17:53:45.360Z,14.40
2023-03-17T17:56:15.768Z,14.30
2023-03-17T17:58:44.845Z,14.30
2023-03-17T18:01:16.859Z,14.30
2023-03-17T18:03:44.951Z,14.30
2023-03-17T18:06:13.897Z,14.20
2023-03-17T18:08:43.542Z,14.20
2023-03-17T18:11:11.909Z,14.20
2023-03-17T18:13:40.937Z,14.20
2023-03-17T18:16:10.771Z,14.10
2023-03-17T18:18:42.231Z,14.20
2023-03-17T18:21:10.877Z,14.10
2023-03-17T18:23:42.568Z,14.10
2023-03-17T18:26:12.045Z,14.10
2023-03-17T18:28:40.046Z,14.10
2023-03-17T18:31:10.905Z,14.10
2023-03-17T18:33:39.788Z,14.00
2023-03-17T18:36:08.855Z,14.00
2023-03-17T18:38:37.180Z,14.00
2023-03-17T18:41:07.258Z,14.00
2023-03-17T18:43:36.625Z,14.00
2023-03-17T18:46:04.990Z,14.00
2023-03-17T18:48:33.029Z,14.00
2023-03-17T18:51:01.132Z,14.00
2023-03-17T18:53:30.761Z,13.90
2023-03-17T18:55:59.363Z,13.90
2023-03-17T18:58:28.784Z,13.90
2023-03-17T19:01:01.616Z,13.90
2023-03-17T19:03:32.022Z,13.80
2023-03-17T19:06:09.589Z,13.80
2023-03-17T19:08:37.951Z,13.80
2023-03-17T19:11:07.532Z,13.80
2023-03-17T19:13:35.793Z,13.80
2023-03-17T19:16:06.120Z,13.80
2023-03-17T19:18:34.100Z,13.80
2023-03-17T19:21:02.528Z,13.70
2023-03-17T19:23:32.157Z,13.70
2023-03-17T19:26:00.481Z,13.70
2023-03-17T19:28:28.655Z,13.70
2023-03-17T19:30:56.734Z,13.60
2023-03-17T19:33:26.224Z,13.60
2023-03-17T19:35:56.993Z,13.60
2023-03-17T19:38:25.569Z,13.60
2023-03-17T19:40:53.597Z,13.60
2023-03-17T19:43:38.985Z,13.60
2023-03-17T19:46:07.863Z,13.60
2023-03-17T19:48:37.544Z,13.60
2023-03-17T19:51:06.254Z,13.50
2023-03-17T19:53:34.253Z,13.50
2023-03-17T19:56:02.322Z,13.50
2023-03-17T19:58:30.608Z,13.40
2023-03-17T20:00:58.665Z,13.40
2023-03-17T20:03:26.642Z,13.40
2023-03-17T20:05:56.054Z,13.40
2023-03-17T20:08:24.852Z,13.30
2023-03-17T20:10:53.903Z,13.30
2023-03-17T20:13:22.579Z,13.30
2023-03-17T20:15:51.522Z,13.30
2023-03-17T20:18:20.028Z,13.30
2023-03-17T20:20:52.408Z,13.20
2023-03-17T20:23:22.636Z,13.20
2023-03-17T20:25:51.443Z,13.20
2023-03-17T20:28:21.410Z,13.20
2023-03-17T20:30:50.313Z,13.20
2023-03-17T20:33:18.372Z,13.20
2023-03-17T20:35:47.550Z,13.20
2023-03-17T20:38:16.286Z,13.30
2023-03-17T20:40:45.809Z,13.30
2023-03-17T20:43:14.184Z,13.30
2023-03-17T20:45:42.313Z,13.30
2023-03-17T20:48:10.802Z,13.30
2023-03-17T20:50:39.214Z,13.20
2023-03-17T20:53:07.462Z,13.20
2023-03-17T20:55:36.544Z,13.20
2023-03-17T20:58:06.061Z,13.10
2023-03-17T21:00:34.401Z,13.10
2023-03-17T21:03:02.740Z,13.10
2023-03-17T21:05:32.631Z,13.10
2023-03-17T21:08:01.150Z,13.10
2023-03-17T21:10:30.851Z,13.00
2023-03-17T21:12:58.922Z,13.00
2023-03-17T21:15:28.806Z,13.00
2023-03-17T21:17:57.090Z,13.00
2023-03-17T21:20:26.139Z,12.90
2023-03-17T21:22:54.201Z,12.90
2023-03-17T21:25:22.288Z,12.90
2023-03-17T21:27:50.842Z,12.80
2023-03-17T21:30:19.077Z,12.80
2023-03-17T21:32:48.705Z,12.80
2023-03-17T21:35:18.169Z,12.70
2023-03-17T21:37:46.179Z,12.70
2023-03-17T21:40:15.690Z,12.70
2023-03-17T21:42:43.753Z,12.70
2023-03-17T21:45:11.881Z,12.60
2023-03-17T21:47:42.949Z,12.60
2023-03-17T21:50:13.261Z,12.50
2023-03-17T21:52:42.469Z,12.50
2023-03-17T21:55:11.236Z,12.50
2023-03-17T21:57:39.562Z,12.50
2023-03-17T22:00:09.602Z,12.50
2023-03-17T22:02:37.573Z,12.40
2023-03-17T22:05:06.935Z,12.40
2023-03-17T22:07:36.240Z,12.50
2023-03-17T22:10:07.039Z,12.50
2023-03-17T22:12:35.248Z,12.50
2023-03-17T22:15:03.960Z,12.50
2023-03-17T22:17:32.585Z,12.50
2023-03-17T22:20:00.582Z,12.50
2023-03-17T22:22:28.786Z,12.50
2023-03-17T22:24:58.107Z,12.50
2023-03-17T22:27:27.386Z,12.50
2023-03-17T22:29:55.552Z,12.40
2023-03-17T22:32:23.521Z,12.40
2023-03-17T22:34:51.526Z,12.40
2023-03-17T22:37:19.482Z,12.40
2023-03-17T22:39:47.414Z,12.40
2023-03-17T22:42:16.786Z,12.40
2023-03-17T22:44:44.768Z,12.50
2023-03-17T22:47:12.745Z,12.40
2023-03-17T22:49:40.933Z,12.40
2023-03-17T22:52:08.966Z,12.40
2023-03-17T22:54:36.944Z,12.40
2023-03-17T22:57:05.738Z,12.40
2023-03-17T22:59:35.468Z,12.50
2023-03-17T23:02:03.554Z,12.40
2023-03-17T23:04:32.143Z,12.40
2023-03-17T23:07:00.171Z,12.40
2023-03-17T23:09:28.178Z,12.40
2023-03-17T23:11:56.402Z,12.40
2023-03-17T23:14:24.383Z,12.40
2023-03-17T23:16:53.848Z,12.40
2023-03-17T23:19:22.160Z,12.40
2023-03-17T23:21:50.174Z,12.30
2023-03-17T23:24:18.311Z,12.30
2023-03-17T23:26:46.293Z,12.30
2023-03-17T23:29:14.515Z,12.30
2023-03-17T23:31:42.569Z,12.40
2023-03-17T23:34:12.104Z,12.30
2023-03-17T23:36:40.586Z,12.30
2023-03-17T23:39:09.728Z,12.30
2023-03-17T23:41:38.134Z,12.30
2023-03-17T23:44:06.550Z,12.30
2023-03-17T23:46:34.591Z,12.30
2023-03-17T23:49:04.272Z,12.30
2023-03-17T23:51:34.341Z,12.30
2023-03-17T23:54:02.539Z,12.30
2023-03-17T23:56:30.764Z,12.30
2023-03-17T23:58:59.001Z,12.30
